Dutch
Home     News     Corporate     Events & Tours     Flight ops     Crew centre      
My transavia virtual    Join us    Last logs    Who is flying    Forum    Software    Training    VRTS     
 

view flightdata
view flightplan
view OFP
view flightlog



flightdata:
pilot: Theo Ben Salem
flight: TRA075
from: LFBD (Bordeaux Bordeaux Merignac)
to: LFMN (Nice)
date: 26-03-2020
departure: 20:12z
arrival: 21:55z
duration: 1:43
aircraft: B738 (PHHSI)
distance: 476 NM
touchdown: -258 ft/m @ 125 KIAS



flightplan:
-(FPL-TRA075-IN
-B738/M-SDEHPRWXY/EHLSB1
-LFBD1958
-N0450F330 SAU UL127 ROVOT UY373 ABLAK
-LFMN0113 LFML
-PBN/B1D1LO1 DOF/200326 REG/PHHSI SEL/JQDH CODE/4841A5 OPR/TRA RVR/200 RMK/TCAS)



operational flightplan (OFP):
NO LOADSHEET AVAILABLE

WEATHER BRIEFING - GENERATED 26 MAR 2020 19:43 UTC
--------------------------------------------------------------------------------

LFBD LFMN LFML

--------------------------------------------------------------------------------
ORIGIN: LFBD (BORDEAUX)
--------------------------------------------------------------------------------
LFBD 261900Z AUTO 01007KT CAVOK 10/M01 Q1013 NOSIG

LFBD 261700Z 2618/2724 02010KT CAVOK TX17/2714Z TN01/2706Z=  LFRB 261700Z 2618/2724 05018KT CAVOK
      BECMG 2622/2624 05008KT


--------------------------------------------------------------------------------
DESTINATION: LFMN (NICE)
--------------------------------------------------------------------------------
LFMN 261900Z VRB03KT 9999 -RA BKN046 09/02 Q1011 NOSIG

LFMN 261400Z 2615/2721 18007KT 9999 BKN090
      BECMG 2617/2619 34010KT BKN050
      TEMPO 2617/2623 RA BKN030
      BECMG 2714/2715 CAVOK


--------------------------------------------------------------------------------
ALTERNATE: LFML (MARSEILLE)
--------------------------------------------------------------------------------
LFML 261900Z AUTO 27013KT CAVOK 10/03 Q1010 NOSIG

LFML 261400Z 2615/2721 28013KT CAVOK TX14/2715Z TN07/2706Z
      TEMPO 2701/2705 VRB05KT -RA BKN040
      BECMG 2709/2711 31006KT
      BECMG 2716/2717 VRB05KT


NOTAM BRIEFING - GENERATED 26 MAR 2020 19:43 UTC
--------------------------------------------------------------------------------

LFBD LFMN LFML

--------------------------------------------------------------------------------
GLOBAL TRANSAVIA.COM VIRTUAL NOTAMS
--------------------------------------------------------------------------------
REF:NIL PLEASE CONTACT OPERATIONS IN CASE OF STRUCTURAL FLIGHTPLAN ERRORS ON FLIGHT-OPS@TRANSAVIA-VIRTUAL.COM
VALID:UFN

REF:NIL
PLEASE CHECK ACARS EVERY 10 MINUTES WHEN FLYING WITH SOUND OFF. AN NEW ACARS MESSAGE PRODUCE A SOUND SIGNAL UNTILL ITS READ. FLOWCONTROL DON'T RECEIVE MUCH REACTION ON OUTGOING ACARS MESSAGES ACCORDING FLIGHTSTATUS.
SOURCE: SPL/HV/OCC/
END VALID: UFN

REF:NIL
PLEASE CONTACT FLOWCONTROL IN CASE OF PROBLEMS WITH ROUTINGS
SOURCE: SPL/HV/OCC/
END VALID: UFN

REF:NIL
IN CASE OF ENGINE-OUT FLY V2 OR V2 20 MAX. UNTIL ABOVE MSA.
LEVEL-OFF AT AN ALTITUDE ROUNDED OFF TO THE FIRST 1000 FT OF THE HIGHEST MSA.
E.G: MSA EHAM; 1.7 AND 2.3 LEVEL-OFF 3000 FT. AFTER LANDING MAKE A REP TO OCC ON 131.975
SOURCE:SPL/HV/OCC
END VALID:UFN



flightlog:
Pilot : Theo Ben Salem
Flight: TRA075
From  : LFBD Bordeaux
To    : LFMN Nice

[FLIGHTLOG] 1.5.4
26-03-2020 20:00:49z, logging started
26-03-2020 20:12:03z, parking brake released
26-03-2020 20:15:15z, flaps set to 13%
26-03-2020 20:15:23z, flaps set to 25%
26-03-2020 20:15:26z, flaps set to 38%
26-03-2020 20:15:49z, pos report: 000 KIAS, 00 174 ft, heading 225, winds 020 @ 05 kts
26-03-2020 20:24:35z, take-off at 149 KIAS
26-03-2020 20:24:35z, pos report: 149 KIAS, 00 179 ft, heading 044, winds 020 @ 05 kts
26-03-2020 20:24:35z, flying online @ IVAO (TRA075)
26-03-2020 20:24:35z, position: LFBD - Bordeaux
26-03-2020 20:24:43z, retracted gear at 171 KIAS and 230 ft AGL
26-03-2020 20:25:08z, flaps set to 25%
26-03-2020 20:25:12z, flaps set to 13%
26-03-2020 20:25:19z, flaps set to 0%
26-03-2020 20:30:50z, pos report: 302 KIAS, 18 915 ft, heading 118, winds 029 @ 39 kts
26-03-2020 20:45:27z, flaps set to 13%
26-03-2020 20:45:34z, flaps set to 0%
26-03-2020 20:45:51z, pos report: 260 KIAS, 32 810 ft, heading 108, winds 093 @ 25 kts
26-03-2020 21:00:52z, pos report: 283 KIAS, 32 857 ft, heading 103, winds 112 @ 31 kts
26-03-2020 21:15:53z, pos report: 257 KIAS, 18 809 ft, heading 149, winds 120 @ 41 kts
26-03-2020 21:30:54z, pos report: 255 KIAS, 13 931 ft, heading 110, winds 103 @ 33 kts
26-03-2020 21:40:27z, flaps set to 13%
26-03-2020 21:40:35z, flaps set to 25%
26-03-2020 21:42:05z, lowered gear at 228 KIAS and 5387 ft AGL
26-03-2020 21:42:53z, flaps set to 38%
26-03-2020 21:43:41z, on glideslope
26-03-2020 21:45:25z, flaps set to 50%
26-03-2020 21:45:55z, pos report: 181 KIAS, 02 230 ft, heading 043, winds 009 @ 07 kts
26-03-2020 21:47:06z, flaps set to 62%
26-03-2020 21:47:17z, flaps set to 75%
26-03-2020 21:47:55z, flaps set to 87%
26-03-2020 21:48:00z, flaps set to 100%
26-03-2020 21:48:07z, above glideslope
26-03-2020 21:48:27z, touchdown: -258ft/m at 125 KIAS
26-03-2020 21:48:27z, pos report: 125 KIAS, 00 021 ft, heading 044, winds 199 @ 04 kts
26-03-2020 21:48:27z, flying online @ IVAO (TRA075)
26-03-2020 21:48:27z, position: LFMN - Nice
26-03-2020 21:49:17z, retracted spoilers
26-03-2020 21:49:25z, flaps set to 87%
26-03-2020 21:49:30z, flaps set to 75%
26-03-2020 21:49:33z, flaps set to 62%
26-03-2020 21:49:36z, flaps set to 50%
26-03-2020 21:49:39z, flaps set to 38%
26-03-2020 21:49:44z, flaps set to 25%
26-03-2020 21:49:47z, flaps set to 13%
26-03-2020 21:49:55z, flaps set to 0%
26-03-2020 21:54:52z, deployed spoilers
26-03-2020 21:54:55z, retracted spoilers
26-03-2020 21:55:32z, parking brake set
26-03-2020 21:56:05z, logging ended

©2009-2020, transavia virtual. All rights reserved. This website is only meant for simulation purposes.
This website is not owned by transavia, nor is transavia responsible for the content of this website.